Time;durP1;ratioP1;P1;durP2;ratioP2;P2;SDS_P1;SDS_P2;PMS_P1;PMS_P2;Temp;Humidity;BMP_temperature;BMP_pressure;BME280_temperature;BME280_humidity;BME280_pressure;Samples;Min_cycle;Max_cycle;Signal;HPM_P1;HPM_P2
2022/02/03 00:01:25;;;;;;;36.85;6.40;;;4.10;99.90;;;;;;5059985;28;20124;-51
2022/02/03 00:06:24;;;;;;;38.33;7.32;;;4.10;99.90;;;;;;5065545;28;20036;-51
2022/02/03 00:09:19;;;;;;;51.05;7.05;;;4.10;99.90;;;;;;5069206;28;20120;-50
2022/02/03 00:25:34;;;;;;;36.90;6.25;;;4.30;99.90;;;;;;5067944;28;20016;-51
2022/02/03 00:49:17;;;;;;;32.38;5.20;;;4.50;99.90;;;;;;5067570;28;20539;-48
2022/02/03 00:51:50;;;;;;;25.50;5.10;;;4.50;99.90;;;;;;5071238;28;20064;-52
2022/02/03 00:54:20;;;;;;;31.35;5.68;;;4.50;99.90;;;;;;5064368;28;20074;-49
2022/02/03 00:56:54;;;;;;;31.67;5.15;;;4.50;99.90;;;;;;5070698;28;20043;-48
2022/02/03 00:59:43;;;;;;;34.33;5.75;;;4.50;99.90;;;;;;5071682;28;20486;-53
2022/02/03 01:02:14;;;;;;;33.95;6.25;;;4.50;99.90;;;;;;5064833;28;20074;-50
2022/02/03 01:04:43;;;;;;;31.83;5.82;;;4.60;99.90;;;;;;5071125;28;20021;-48
2022/02/03 01:07:10;;;;;;;35.33;6.05;;;4.50;99.90;;;;;;5071370;28;20032;-51
2022/02/03 01:09:42;;;;;;;39.92;6.55;;;4.50;99.90;;;;;;5071428;28;20040;-49
2022/02/03 01:12:22;;;;;;;36.53;5.60;;;4.60;99.90;;;;;;5059772;28;20040;-48
2022/02/03 01:15:00;;;;;;;28.70;5.40;;;4.50;99.90;;;;;;5068872;28;20111;-51
2022/02/03 01:17:36;;;;;;;41.58;6.10;;;4.60;99.90;;;;;;5062725;28;20082;-49
2022/02/03 01:45:05;;;;;;;28.77;5.65;;;4.70;99.90;;;;;;5070432;28;20039;-49
2022/02/03 01:52:39;;;;;;;28.95;5.20;;;4.70;99.90;;;;;;5071185;28;20042;-49
2022/02/03 01:55:24;;;;;;;30.15;5.55;;;4.70;99.90;;;;;;5060528;28;20173;-49
2022/02/03 01:58:12;;;;;;;30.88;5.30;;;4.70;99.90;;;;;;5070563;28;20033;-50
2022/02/03 02:01:00;;;;;;;40.30;5.40;;;4.70;99.90;;;;;;5067533;28;20032;-52
2022/02/03 02:03:50;;;;;;;24.42;5.22;;;4.70;99.90;;;;;;5069120;28;20059;-50
2022/02/03 02:06:41;;;;;;;32.60;5.38;;;4.70;99.90;;;;;;5061937;28;20029;-50
2022/02/03 02:09:56;;;;;;;38.97;6.75;;;4.70;99.90;;;;;;5062304;28;20481;-53
2022/02/03 02:13:01;;;;;;;26.65;5.30;;;4.70;99.90;;;;;;5064733;28;20032;-49
2022/02/03 02:37:55;;;;;;;21.75;4.63;;;4.80;99.90;;;;;;5066578;28;20094;-50
2022/02/03 02:40:49;;;;;;;30.38;4.88;;;4.80;99.90;;;;;;5051373;28;20466;-49
2022/02/03 02:43:20;;;;;;;28.73;4.55;;;4.70;99.90;;;;;;5063255;28;20086;-49
2022/02/03 02:45:58;;;;;;;34.50;5.75;;;4.70;99.90;;;;;;5068589;28;20032;-50
2022/02/03 02:48:36;;;;;;;25.13;5.55;;;4.60;99.90;;;;;;5069304;28;20028;-51
2022/02/03 02:51:15;;;;;;;33.78;5.38;;;4.60;99.90;;;;;;5060751;28;20492;-50
2022/02/03 02:54:17;;;;;;;28.35;4.30;;;4.60;99.90;;;;;;5069861;28;20032;-51
2022/02/03 03:00:22;;;;;;;26.85;5.45;;;4.60;99.90;;;;;;5044397;28;20032;-51
2022/02/03 03:31:07;;;;;;;35.85;5.63;;;4.80;99.90;;;;;;5069592;28;20544;-52
2022/02/03 03:33:54;;;;;;;30.23;5.35;;;4.80;99.90;;;;;;5068008;28;20398;-52
2022/02/03 03:36:21;;;;;;;35.70;6.85;;;4.90;99.90;;;;;;5063487;28;20036;-52
2022/02/03 03:38:49;;;;;;;41.05;5.88;;;4.90;99.90;;;;;;5065495;28;20287;-50
2022/02/03 03:41:21;;;;;;;32.70;6.45;;;4.90;99.90;;;;;;5062452;28;20111;-52
2022/02/03 03:44:11;;;;;;;41.33;6.53;;;4.90;99.90;;;;;;5068526;28;20041;-50
2022/02/03 03:46:39;;;;;;;26.73;5.75;;;5.00;99.90;;;;;;5059500;28;20511;-51
2022/02/03 03:49:10;;;;;;;29.55;5.93;;;4.90;99.90;;;;;;5064613;28;20025;-49
2022/02/03 03:52:18;;;;;;;28.13;6.15;;;4.90;99.90;;;;;;5065938;28;20062;-51
2022/02/03 03:55:09;;;;;;;44.60;8.10;;;5.00;99.90;;;;;;4986594;28;20049;-50
2022/02/03 04:00:30;;;;;;;27.08;7.03;;;5.00;99.90;;;;;;5068100;28;20107;-50
2022/02/03 04:38:36;;;;;;;39.20;11.98;;;5.20;99.90;;;;;;5078788;28;20070;-50
2022/02/03 04:57:25;;;;;;;37.20;11.93;;;5.20;99.90;;;;;;5069939;28;20086;-52
2022/02/03 05:13:12;;;;;;;44.40;15.68;;;5.30;99.90;;;;;;5052396;28;20059;-50
2022/02/03 05:19:39;;;;;;;36.50;16.95;;;5.30;99.90;;;;;;5045093;28;20037;-52
2022/02/03 05:22:57;;;;;;;35.28;16.42;;;5.30;99.90;;;;;;5059178;28;20025;-51
2022/02/03 05:34:57;;;;;;;41.60;16.08;;;5.30;99.90;;;;;;5062400;28;20035;-53
2022/02/03 05:43:15;;;;;;;39.05;16.75;;;5.30;99.90;;;;;;5071466;28;20031;-50
2022/02/03 05:51:29;;;;;;;39.42;16.38;;;5.30;99.90;;;;;;5071102;28;20036;-52
2022/02/03 06:07:48;;;;;;;31.50;13.95;;;5.40;99.90;;;;;;5070547;28;19970;-51
2022/02/03 06:13:07;;;;;;;33.13;16.30;;;5.50;99.90;;;;;;5070499;28;20473;-51
2022/02/03 06:15:47;;;;;;;36.65;16.55;;;5.50;99.90;;;;;;5060904;28;20176;-51
2022/02/03 06:23:41;;;;;;;31.48;16.77;;;5.50;99.90;;;;;;5070092;28;20032;-52
2022/02/03 06:28:59;;;;;;;26.98;15.00;;;5.50;99.90;;;;;;5069743;28;20374;-55
2022/02/03 06:31:24;;;;;;;31.73;16.83;;;5.50;99.90;;;;;;5069585;28;20117;-54
2022/02/03 06:33:50;;;;;;;31.95;15.45;;;5.60;99.90;;;;;;5069172;28;20103;-53
2022/02/03 06:36:16;;;;;;;32.25;16.95;;;5.60;99.90;;;;;;5063883;28;20029;-54
2022/02/03 06:38:41;;;;;;;31.05;16.15;;;5.60;99.90;;;;;;5067526;28;20029;-52
2022/02/03 06:41:07;;;;;;;34.15;17.05;;;5.60;99.90;;;;;;5055273;28;20546;-53
2022/02/03 06:43:32;;;;;;;35.78;17.48;;;5.60;99.90;;;;;;5051429;28;20036;-52
2022/02/03 06:46:03;;;;;;;42.63;19.23;;;5.60;99.90;;;;;;5068046;28;20024;-50
2022/02/03 06:48:31;;;;;;;38.55;19.88;;;5.70;99.90;;;;;;5068476;28;20485;-53
2022/02/03 06:51:05;;;;;;;39.60;18.08;;;5.70;99.90;;;;;;5069845;28;20162;-50
2022/02/03 06:53:35;;;;;;;43.53;19.50;;;5.70;99.90;;;;;;5067385;28;20048;-50
2022/02/03 06:56:10;;;;;;;43.25;19.90;;;5.70;99.90;;;;;;5068860;28;20044;-51
2022/02/03 06:59:00;;;;;;;47.10;20.30;;;5.80;99.90;;;;;;5061040;28;20041;-54
2022/02/03 07:01:28;;;;;;;48.47;21.60;;;5.80;99.90;;;;;;5063919;28;20432;-52
2022/02/03 07:04:03;;;;;;;49.80;21.15;;;5.80;99.90;;;;;;5067180;28;20036;-52
2022/02/03 07:06:29;;;;;;;44.40;20.45;;;5.80;99.90;;;;;;5068429;28;20036;-51
2022/02/03 07:08:56;;;;;;;53.42;21.83;;;5.80;99.90;;;;;;5065854;28;20037;-51
2022/02/03 07:11:23;;;;;;;45.63;20.67;;;5.80;99.90;;;;;;5063496;28;20043;-51
2022/02/03 07:13:49;;;;;;;48.22;21.25;;;5.80;99.90;;;;;;5059680;28;20036;-54
2022/02/03 07:16:15;;;;;;;50.10;21.55;;;5.80;99.90;;;;;;5065338;28;20031;-51
2022/02/03 07:18:40;;;;;;;44.55;20.13;;;5.90;99.90;;;;;;5068702;28;20385;-51
2022/02/03 07:21:06;;;;;;;44.92;19.05;;;5.90;99.90;;;;;;5064581;28;20479;-51
2022/02/03 07:23:34;;;;;;;36.42;16.77;;;5.90;99.90;;;;;;5064583;28;20374;-53
2022/02/03 07:26:00;;;;;;;39.13;19.38;;;6.00;99.90;;;;;;5068192;28;20421;-52
2022/02/03 07:28:25;;;;;;;36.63;18.42;;;6.10;99.90;;;;;;5069663;28;20028;-51
2022/02/03 07:30:51;;;;;;;40.30;20.10;;;6.10;99.90;;;;;;5068774;28;20100;-56
2022/02/03 07:33:17;;;;;;;46.25;21.60;;;6.10;99.90;;;;;;5060349;28;20039;-57
2022/02/03 07:35:45;;;;;;;50.70;23.15;;;6.10;99.90;;;;;;5069207;28;20059;-57
2022/02/03 07:38:11;;;;;;;52.90;24.52;;;6.10;99.90;;;;;;5073769;28;20029;-57
2022/02/03 07:40:36;;;;;;;60.45;26.63;;;6.10;99.90;;;;;;5072737;28;20543;-57
2022/02/03 07:43:05;;;;;;;55.78;23.23;;;6.20;99.90;;;;;;5073554;28;20072;-58
2022/02/03 07:45:32;;;;;;;55.22;25.77;;;6.20;99.90;;;;;;5071498;28;20032;-57
2022/02/03 07:47:57;;;;;;;58.63;24.88;;;6.20;99.90;;;;;;5073252;28;20545;-56
2022/02/03 07:50:23;;;;;;;54.47;22.85;;;6.10;99.90;;;;;;5072416;28;20088;-58
2022/02/03 07:52:49;;;;;;;58.85;23.75;;;6.20;99.90;;;;;;5063768;28;20025;-55
2022/02/03 07:55:16;;;;;;;57.13;22.38;;;6.20;99.90;;;;;;5072892;28;20485;-54
2022/02/03 07:57:46;;;;;;;48.38;21.35;;;6.30;99.90;;;;;;5063773;28;20037;-54
2022/02/03 08:00:13;;;;;;;56.65;21.60;;;6.30;99.90;;;;;;5072907;28;20013;-49
2022/02/03 08:02:42;;;;;;;63.70;23.52;;;6.30;99.90;;;;;;5070550;28;20338;-50
2022/02/03 08:05:09;;;;;;;64.80;24.00;;;6.30;99.90;;;;;;5069276;28;20032;-54
2022/02/03 08:07:50;;;;;;;69.10;23.45;;;6.30;99.90;;;;;;5072084;28;20136;-51
2022/02/03 08:10:32;;;;;;;68.63;23.50;;;6.40;99.90;;;;;;5064452;28;20055;-52
2022/02/03 08:13:01;;;;;;;63.88;23.70;;;6.40;99.90;;;;;;5073630;28;20108;-53
2022/02/03 08:15:28;;;;;;;73.53;24.10;;;6.40;99.90;;;;;;5064627;28;20170;-53
2022/02/03 08:18:00;;;;;;;74.25;25.17;;;6.40;99.90;;;;;;5072094;28;20331;-54
2022/02/03 08:20:26;;;;;;;66.30;23.08;;;6.40;99.90;;;;;;5071238;28;20112;-55
2022/02/03 08:23:08;;;;;;;75.18;26.00;;;6.40;99.90;;;;;;5074294;28;20088;-54
2022/02/03 08:25:34;;;;;;;65.13;23.45;;;6.50;99.90;;;;;;5072298;28;20028;-51
2022/02/03 08:28:34;;;;;;;67.25;23.23;;;6.50;99.90;;;;;;5074604;28;20505;-50
2022/02/03 08:33:25;;;;;;;61.75;23.67;;;6.50;99.90;;;;;;5072673;28;20037;-53
2022/02/03 08:35:51;;;;;;;53.75;21.52;;;6.50;99.90;;;;;;5062920;28;20064;-52
2022/02/03 08:38:33;;;;;;;62.97;23.20;;;6.60;99.90;;;;;;5067224;28;20125;-51
2022/02/03 08:41:02;;;;;;;57.80;23.05;;;6.60;99.90;;;;;;5064271;28;20033;-54
2022/02/03 08:43:33;;;;;;;53.65;22.98;;;6.60;99.90;;;;;;5067632;28;20036;-51
2022/02/03 08:46:07;;;;;;;58.00;22.00;;;6.60;99.90;;;;;;5063822;28;20033;-54
2022/02/03 08:48:34;;;;;;;60.75;23.42;;;6.60;99.90;;;;;;5067981;28;20048;-53
2022/02/03 08:51:02;;;;;;;57.28;23.05;;;6.70;99.90;;;;;;5071140;28;20393;-53
2022/02/03 08:53:33;;;;;;;58.38;23.75;;;6.70;99.90;;;;;;5071640;28;20031;-50
2022/02/03 09:39:04;;;;;;;65.53;25.63;;;7.20;99.90;;;;;;5070487;28;20021;-56
2022/02/03 09:58:18;;;;;;;53.72;22.10;;;7.40;99.90;;;;;;5060738;28;20078;-52
2022/02/03 10:01:24;;;;;;;54.05;22.80;;;7.40;99.90;;;;;;5070417;28;20025;-50
2022/02/03 10:03:55;;;;;;;54.97;23.58;;;7.40;99.90;;;;;;5062203;28;20489;-56
2022/02/03 10:06:25;;;;;;;52.15;22.08;;;7.40;99.90;;;;;;5068857;28;20040;-52
2022/02/03 10:08:53;;;;;;;51.72;22.13;;;7.50;99.90;;;;;;5070888;28;20027;-53
2022/02/03 10:11:25;;;;;;;62.95;23.95;;;7.60;99.90;;;;;;5069357;28;20052;-53
2022/02/03 10:14:02;;;;;;;70.70;26.40;;;7.60;99.90;;;;;;5070976;28;20024;-52
2022/02/03 10:16:34;;;;;;;73.40;27.33;;;7.60;99.90;;;;;;5069667;28;20161;-54
2022/02/03 10:19:04;;;;;;;73.70;28.50;;;7.60;99.90;;;;;;5071464;28;20078;-56
2022/02/03 10:21:30;;;;;;;82.10;29.02;;;7.70;99.90;;;;;;5065457;28;20067;-54
2022/02/03 10:24:02;;;;;;;87.10;31.60;;;7.70;99.90;;;;;;5061353;28;20672;-54
2022/02/03 10:26:47;;;;;;;89.63;31.85;;;7.70;99.90;;;;;;5065008;28;20032;-53
2022/02/03 10:29:17;;;;;;;89.55;32.13;;;7.70;99.90;;;;;;5066979;28;20064;-54
2022/02/03 10:31:44;;;;;;;89.88;33.78;;;7.70;99.90;;;;;;5068673;28;20028;-55
2022/02/03 10:34:14;;;;;;;103.68;35.15;;;7.80;99.90;;;;;;5064797;28;20044;-55
2022/02/03 10:36:58;;;;;;;94.85;34.30;;;7.80;99.90;;;;;;5066455;28;20099;-55
2022/02/03 11:08:19;;;;;;;86.85;33.72;;;7.90;99.90;;;;;;5049933;28;20025;-52
2022/02/03 11:10:52;;;;;;;88.53;33.58;;;7.90;99.90;;;;;;5064845;28;20028;-53
2022/02/03 11:13:20;;;;;;;89.93;34.72;;;7.90;99.90;;;;;;5062127;28;20029;-55
2022/02/03 11:15:48;;;;;;;93.28;35.45;;;7.90;99.90;;;;;;5066509;28;20434;-54
2022/02/03 11:18:16;;;;;;;92.43;34.90;;;7.90;99.90;;;;;;5069045;28;20201;-54
2022/02/03 11:20:44;;;;;;;97.43;36.08;;;7.90;99.90;;;;;;5070054;28;20131;-54
2022/02/03 12:20:56;;;;;;;58.90;25.88;;;7.80;99.90;;;;;;5063755;28;20562;-56
2022/02/03 12:23:44;;;;;;;58.83;26.23;;;7.70;99.90;;;;;;5065887;28;20028;-55
2022/02/03 12:26:20;;;;;;;64.70;26.38;;;7.70;99.90;;;;;;5064955;28;20036;-57
2022/02/03 12:28:59;;;;;;;55.03;27.45;;;7.70;99.90;;;;;;5072732;28;20028;-56
2022/02/03 12:39:39;;;;;;;57.75;27.83;;;7.70;99.90;;;;;;5066809;28;20517;-54
2022/02/03 12:42:08;;;;;;;58.63;28.10;;;7.70;99.90;;;;;;5064746;28;20157;-53
2022/02/03 12:44:38;;;;;;;52.85;27.08;;;7.80;99.90;;;;;;5069698;28;20021;-54
2022/02/03 12:47:05;;;;;;;54.13;25.75;;;7.80;99.90;;;;;;5063671;28;20040;-53
2022/02/03 12:49:36;;;;;;;53.47;25.45;;;7.80;99.90;;;;;;5071066;28;20028;-52
2022/02/03 12:52:28;;;;;;;61.80;26.50;;;7.80;99.90;;;;;;5052497;28;20410;-51
2022/02/03 12:54:55;;;;;;;44.75;23.05;;;7.90;99.90;;;;;;5068129;28;20033;-52
2022/02/03 12:57:31;;;;;;;49.80;23.13;;;7.90;99.90;;;;;;5065882;28;20032;-53
2022/02/03 13:00:18;;;;;;;47.33;23.98;;;7.90;99.90;;;;;;5063971;28;20032;-53
2022/02/03 13:02:55;;;;;;;47.67;22.25;;;7.90;99.90;;;;;;5070425;28;20021;-52
2022/02/03 13:05:24;;;;;;;46.42;22.20;;;7.90;99.90;;;;;;5072151;28;20055;-53
2022/02/03 13:07:54;;;;;;;43.30;21.45;;;7.80;99.90;;;;;;5069388;28;20036;-51
2022/02/03 13:10:22;;;;;;;46.47;22.50;;;7.80;99.90;;;;;;5065993;28;20050;-51
2022/02/03 13:12:57;;;;;;;43.13;22.65;;;7.80;99.90;;;;;;5069662;28;20044;-52
2022/02/03 13:15:39;;;;;;;42.63;20.55;;;7.80;99.90;;;;;;5071012;28;20415;-51
2022/02/03 13:18:11;;;;;;;45.53;20.20;;;7.80;99.90;;;;;;5070484;28;20036;-53
2022/02/03 13:20:49;;;;;;;;;;;7.80;99.90;;;;;;5067406;28;20071;-53
2022/02/03 13:23:20;;;;;;;43.53;20.92;;;7.70;99.90;;;;;;5065543;28;19999;-54
2022/02/03 13:25:57;;;;;;;44.95;20.83;;;7.70;99.90;;;;;;5069983;28;20102;-53
2022/02/03 13:28:37;;;;;;;52.28;21.70;;;7.70;99.90;;;;;;5061541;28;20082;-52
2022/02/03 13:34:24;;;;;;;45.20;22.17;;;7.70;99.90;;;;;;5062522;28;20043;-53
2022/02/03 13:36:51;;;;;;;43.40;21.35;;;7.70;99.90;;;;;;5068749;28;20028;-52
2022/02/03 13:39:27;;;;;;;44.55;21.45;;;7.60;99.90;;;;;;5069598;28;20143;-51
2022/02/03 13:42:09;;;;;;;50.08;22.10;;;7.60;99.90;;;;;;5062194;28;20029;-52
2022/02/03 13:44:35;;;;;;;46.92;21.63;;;7.60;99.90;;;;;;5071214;28;20032;-51
2022/02/03 13:47:18;;;;;;;40.45;18.98;;;7.60;99.90;;;;;;5067780;28;20039;-51
2022/02/03 13:49:44;;;;;;;;;;;7.60;99.90;;;;;;5070052;28;20028;-53
2022/02/03 13:52:15;;;;;;;37.28;18.13;;;7.60;99.90;;;;;;5069801;28;20356;-55
2022/02/03 14:21:47;;;;;;;34.33;16.58;;;7.60;99.90;;;;;;5068534;28;20429;-54
2022/02/03 14:29:41;;;;;;;28.10;15.93;;;7.60;99.90;;;;;;5070070;28;20052;-52
2022/02/03 14:32:08;;;;;;;30.98;17.45;;;7.60;99.90;;;;;;5062804;28;20033;-51
2022/02/03 14:34:35;;;;;;;33.95;16.60;;;7.60;99.90;;;;;;5066257;28;20091;-52
2022/02/03 14:37:07;;;;;;;31.15;16.67;;;7.60;99.90;;;;;;5068644;28;20119;-53
2022/02/03 14:40:17;;;;;;;32.77;16.57;;;7.60;99.90;;;;;;5069941;28;20103;-51
2022/02/03 14:42:28;;;;;;;32.80;17.73;;;7.60;99.90;;;;;;5060529;28;20033;-52
2022/02/03 14:44:53;;;;;;;29.88;16.05;;;7.60;99.90;;;;;;5065301;28;20031;-54
2022/02/03 14:47:22;;;;;;;34.45;17.00;;;7.60;99.90;;;;;;5063398;28;20147;-52
2022/02/03 14:49:47;;;;;;;38.53;16.90;;;7.60;99.90;;;;;;5068055;28;20050;-52
2022/02/03 14:52:25;;;;;;;31.10;16.38;;;7.60;99.90;;;;;;5060913;28;20033;-53
2022/02/03 15:00:24;;;;;;;29.67;16.00;;;7.60;99.90;;;;;;5068927;28;20043;-54
2022/02/03 15:02:50;;;;;;;28.85;15.77;;;7.60;99.90;;;;;;5065817;28;20043;-56
2022/02/03 15:05:24;;;;;;;32.42;17.10;;;7.60;99.90;;;;;;5060546;28;20012;-55
2022/02/03 15:07:56;;;;;;;33.60;16.02;;;7.60;99.90;;;;;;5069120;28;20573;-56
2022/02/03 15:13:04;;;;;;;33.50;16.15;;;7.60;99.90;;;;;;5067715;28;20028;-54
2022/02/03 15:15:30;;;;;;;29.00;15.70;;;7.60;99.90;;;;;;5067985;28;20037;-54
2022/02/03 15:17:56;;;;;;;34.22;17.50;;;7.60;99.90;;;;;;5069626;28;20059;-52
2022/02/03 15:20:23;;;;;;;29.92;16.63;;;7.60;99.90;;;;;;5068682;28;20081;-56
2022/02/03 15:22:49;;;;;;;29.40;16.23;;;7.60;99.90;;;;;;5068214;28;20424;-54
2022/02/03 15:25:14;;;;;;;36.00;17.35;;;7.60;99.90;;;;;;5068740;28;20170;-54
2022/02/03 15:27:40;;;;;;;33.83;16.13;;;7.60;99.90;;;;;;5066356;28;20055;-54
2022/02/03 15:30:06;;;;;;;34.90;16.90;;;7.60;99.90;;;;;;5064301;28;20075;-50
2022/02/03 15:32:38;;;;;;;30.95;16.17;;;7.60;99.90;;;;;;5067181;28;20118;-54
2022/02/03 15:35:09;;;;;;;29.58;15.00;;;7.60;99.90;;;;;;5062025;28;20036;-54
2022/02/03 15:37:35;;;;;;;32.20;15.18;;;7.60;99.90;;;;;;5066547;28;20359;-51
2022/02/03 15:40:05;;;;;;;27.42;15.40;;;7.60;99.90;;;;;;5068891;28;20031;-51
2022/02/03 15:42:38;;;;;;;33.67;15.70;;;7.60;99.90;;;;;;5068481;28;20029;-54
2022/02/03 15:45:05;;;;;;;29.33;14.70;;;7.60;99.90;;;;;;5063273;28;20033;-55
2022/02/03 15:47:43;;;;;;;30.45;15.43;;;7.60;99.90;;;;;;5068806;28;20040;-55
2022/02/03 15:50:41;;;;;;;29.63;14.38;;;7.60;99.90;;;;;;5064739;28;20021;-52
2022/02/03 15:56:53;;;;;;;30.83;16.20;;;7.60;99.90;;;;;;4999006;28;20030;-54
2022/02/03 16:17:57;;;;;;;27.50;13.85;;;7.50;99.90;;;;;;5072844;28;20037;-53
2022/02/03 16:20:33;;;;;;;23.55;13.80;;;7.50;99.90;;;;;;5071481;28;20078;-54
2022/02/03 16:23:38;;;;;;;24.23;14.80;;;7.50;99.90;;;;;;5075188;28;20509;-53
2022/02/03 16:43:09;;;;;;;27.65;14.68;;;7.30;99.90;;;;;;5072037;28;20103;-53
2022/02/03 16:50:52;;;;;;;27.17;16.25;;;7.30;99.90;;;;;;5073214;28;20607;-53
2022/02/03 16:53:15;;;;;;;24.98;15.35;;;7.30;99.90;;;;;;5074413;28;20489;-56
2022/02/03 16:55:43;;;;;;;27.60;15.65;;;7.30;99.90;;;;;;5073691;28;20082;-55
2022/02/03 16:58:10;;;;;;;29.05;16.10;;;7.30;99.90;;;;;;5069579;28;20076;-54
2022/02/03 17:00:36;;;;;;;29.77;16.02;;;7.30;99.90;;;;;;5068763;28;20016;-54
2022/02/03 17:03:02;;;;;;;29.05;16.50;;;7.30;99.90;;;;;;5070130;28;20044;-56
2022/02/03 17:05:29;;;;;;;34.58;18.60;;;7.30;99.90;;;;;;5068371;28;20051;-56
2022/02/03 17:07:55;;;;;;;26.52;15.70;;;7.30;99.90;;;;;;5070728;28;20033;-54
2022/02/03 17:10:20;;;;;;;29.30;17.30;;;7.30;99.90;;;;;;5072039;28;20028;-53
2022/02/03 17:12:47;;;;;;;26.65;16.15;;;7.30;99.90;;;;;;5071310;28;20131;-52
2022/02/03 17:15:13;;;;;;;29.55;16.92;;;7.30;99.90;;;;;;5069449;28;20044;-53
2022/02/03 17:17:39;;;;;;;28.67;16.50;;;7.30;99.90;;;;;;5068562;28;20052;-54
2022/02/03 17:20:05;;;;;;;29.65;16.30;;;7.30;99.90;;;;;;5066893;28;20052;-52
2022/02/03 17:22:36;;;;;;;29.75;17.33;;;7.30;99.90;;;;;;5063977;28;20090;-54
2022/02/03 18:51:18;;;;;;;33.65;19.40;;;7.20;99.90;;;;;;5055678;28;20500;-53
2022/02/03 18:58:49;;;;;;;34.85;19.52;;;7.20;99.90;;;;;;5061286;28;20344;-53
2022/02/03 19:01:45;;;;;;;35.65;19.50;;;7.20;99.90;;;;;;5068673;28;20032;-52
2022/02/03 20:05:53;;;;;;;41.65;22.15;;;7.00;99.90;;;;;;5064035;28;20044;-52
2022/02/03 20:08:34;;;;;;;43.63;22.60;;;7.00;99.90;;;;;;5067552;28;20044;-52
2022/02/03 20:11:00;;;;;;;38.22;22.50;;;7.00;99.90;;;;;;5067491;28;20536;-53
2022/02/03 20:13:25;;;;;;;39.45;23.67;;;7.00;99.90;;;;;;5058186;28;20032;-53
2022/02/03 20:15:52;;;;;;;36.83;22.70;;;7.00;99.90;;;;;;5066630;28;20048;-53
2022/02/03 20:18:19;;;;;;;43.53;24.08;;;7.00;99.90;;;;;;5061652;28;20072;-52
2022/02/03 20:20:45;;;;;;;42.90;24.00;;;7.00;99.90;;;;;;5058320;28;20029;-53
2022/02/03 20:23:15;;;;;;;44.95;24.67;;;6.90;99.90;;;;;;5064644;28;20356;-56
2022/02/03 20:25:43;;;;;;;46.35;24.95;;;6.90;99.90;;;;;;5068691;28;20082;-51
2022/02/03 20:28:09;;;;;;;46.17;25.33;;;7.00;99.90;;;;;;5067268;28;20036;-49
2022/02/03 20:30:36;;;;;;;42.40;25.35;;;7.00;99.90;;;;;;5059416;28;20024;-52
2022/02/03 20:33:02;;;;;;;44.63;26.77;;;6.90;99.90;;;;;;5060689;28;20123;-50
2022/02/03 20:35:27;;;;;;;45.42;26.15;;;6.90;99.90;;;;;;5068670;28;20518;-50
2022/02/03 20:37:53;;;;;;;49.60;26.75;;;6.90;99.90;;;;;;5067537;28;20055;-49
2022/02/03 20:40:19;;;;;;;44.92;25.85;;;6.90;99.90;;;;;;5066966;28;20024;-50
2022/02/03 20:42:45;;;;;;;46.90;26.67;;;6.90;99.90;;;;;;5066429;28;20033;-49
2022/02/03 20:45:11;;;;;;;47.42;25.27;;;6.90;99.90;;;;;;5070393;28;20121;-48
2022/02/03 20:47:37;;;;;;;46.58;26.42;;;6.90;99.90;;;;;;5072960;28;20028;-52
2022/02/03 20:50:13;;;;;;;47.97;26.13;;;6.90;99.90;;;;;;5072165;28;20142;-49
2022/02/03 20:52:39;;;;;;;43.47;26.05;;;6.90;99.90;;;;;;5067577;28;20033;-50
2022/02/03 20:55:05;;;;;;;47.17;26.65;;;6.90;99.90;;;;;;5067851;28;20440;-50
2022/02/03 20:57:30;;;;;;;47.42;26.63;;;6.90;99.90;;;;;;5062854;28;20036;-50
2022/02/03 21:02:59;;;;;;;50.50;28.23;;;6.90;99.90;;;;;;5071961;28;20553;-49
2022/02/03 21:05:25;;;;;;;54.15;27.90;;;6.80;99.90;;;;;;5071822;28;20086;-48
2022/02/03 21:07:51;;;;;;;54.05;28.83;;;6.80;99.90;;;;;;5070380;28;20028;-52
2022/02/03 21:10:23;;;;;;;50.65;28.35;;;6.80;99.90;;;;;;5072208;28;20025;-49
2022/02/03 21:12:49;;;;;;;59.87;30.93;;;6.80;99.90;;;;;;5071836;28;20047;-50
2022/02/03 21:15:22;;;;;;;57.70;30.45;;;6.80;99.90;;;;;;5051708;28;20441;-52
2022/02/03 21:17:48;;;;;;;56.55;29.85;;;6.80;99.90;;;;;;5066885;28;20474;-49
2022/02/03 21:20:17;;;;;;;58.40;30.77;;;6.80;99.90;;;;;;5070987;28;20095;-52
2022/02/03 21:22:43;;;;;;;56.17;30.05;;;6.70;99.90;;;;;;5054159;28;20318;-51
2022/02/03 21:25:22;;;;;;;60.90;31.27;;;6.70;99.90;;;;;;5052698;28;20025;-50
2022/02/03 21:27:50;;;;;;;60.35;32.00;;;6.70;99.90;;;;;;5071710;28;20452;-51
2022/02/03 21:30:18;;;;;;;57.08;30.60;;;6.70;99.90;;;;;;5071362;28;20387;-50
2022/02/03 21:32:44;;;;;;;60.70;30.90;;;6.70;99.90;;;;;;5071552;28;20524;-53
2022/02/03 21:35:10;;;;;;;63.58;32.00;;;6.70;99.90;;;;;;5060055;28;20498;-49
2022/02/03 21:37:38;;;;;;;55.75;32.22;;;6.70;99.90;;;;;;5061125;28;20033;-53
2022/02/03 21:40:06;;;;;;;61.08;32.85;;;6.70;99.90;;;;;;5055016;28;20078;-50
2022/02/03 21:42:31;;;;;;;60.70;32.28;;;6.70;99.90;;;;;;5057368;28;20033;-51
2022/02/03 21:44:57;;;;;;;63.63;33.17;;;6.80;99.90;;;;;;5055095;28;20379;-50
2022/02/03 21:47:23;;;;;;;62.85;31.95;;;6.70;99.90;;;;;;5070995;28;20025;-47
2022/02/03 21:49:48;;;;;;;58.30;31.10;;;6.80;99.90;;;;;;5061529;28;20037;-49
2022/02/03 21:52:20;;;;;;;61.60;32.00;;;6.80;99.90;;;;;;5070549;28;20056;-54
2022/02/03 21:54:47;;;;;;;59.33;31.33;;;6.90;99.90;;;;;;5065010;28;20036;-49
2022/02/03 21:57:12;;;;;;;54.25;28.80;;;6.80;99.90;;;;;;5067799;28;20048;-48
2022/02/03 21:59:38;;;;;;;53.53;30.23;;;6.90;99.90;;;;;;5070825;28;20059;-50
2022/02/03 22:02:07;;;;;;;61.55;32.67;;;6.80;99.90;;;;;;5066047;28;20470;-49
2022/02/03 22:04:32;;;;;;;58.78;32.20;;;6.80;99.90;;;;;;5063345;28;20036;-50
2022/02/03 22:06:58;;;;;;;60.90;32.78;;;6.80;99.90;;;;;;5069665;28;20070;-50
2022/02/03 22:09:24;;;;;;;64.88;33.85;;;6.80;99.90;;;;;;5065503;28;20510;-50
2022/02/03 22:11:49;;;;;;;55.17;32.35;;;6.80;99.90;;;;;;5059729;28;20044;-50
2022/02/03 22:14:15;;;;;;;64.18;32.75;;;6.80;99.90;;;;;;5069154;28;20502;-50
2022/02/03 22:16:41;;;;;;;59.28;32.58;;;6.80;99.90;;;;;;5067424;28;20169;-52
2022/02/03 22:19:06;;;;;;;63.78;34.38;;;6.80;99.90;;;;;;5063121;28;20027;-49
2022/02/03 22:21:59;;;;;;;58.25;31.52;;;6.80;99.90;;;;;;5068556;28;20032;-48
2022/02/03 22:25:04;;;;;;;56.15;30.73;;;6.80;99.90;;;;;;5076949;28;20013;-49
2022/02/03 22:46:36;;;;;;;56.65;31.23;;;6.80;99.90;;;;;;5065458;28;20158;-50
2022/02/03 22:49:07;;;;;;;56.55;30.25;;;6.80;99.90;;;;;;5062971;28;20032;-49
2022/02/03 22:51:34;;;;;;;55.75;30.80;;;6.80;99.90;;;;;;5069992;28;20031;-49
2022/02/03 22:54:00;;;;;;;56.47;30.40;;;6.80;99.90;;;;;;5061176;28;20027;-49
2022/02/03 22:56:27;;;;;;;51.45;29.70;;;6.80;99.90;;;;;;5068897;28;20079;-49
2022/02/03 22:59:20;;;;;;;55.38;30.48;;;6.80;99.90;;;;;;5063748;28;20035;-49
2022/02/03 23:01:42;;;;;;;55.45;29.63;;;6.80;99.90;;;;;;5065987;28;20097;-50
2022/02/03 23:04:09;;;;;;;58.35;31.70;;;6.80;99.90;;;;;;5057971;28;20032;-50
2022/02/03 23:06:34;;;;;;;59.58;31.30;;;6.80;99.90;;;;;;5056710;28;20100;-50
2022/02/03 23:12:17;;;;;;;54.22;30.83;;;6.80;99.90;;;;;;5051741;28;20048;-49
2022/02/03 23:20:03;;;;;;;56.67;29.23;;;6.80;99.90;;;;;;5054190;28;20025;-49
2022/02/03 23:22:29;;;;;;;47.70;26.33;;;6.80;99.90;;;;;;5065118;28;20029;-49
2022/02/03 23:24:55;;;;;;;51.85;27.92;;;6.80;99.90;;;;;;5069924;28;20021;-49
2022/02/03 23:29:53;;;;;;;50.70;28.60;;;6.80;99.90;;;;;;5070795;28;20025;-50
2022/02/03 23:32:20;;;;;;;48.35;27.60;;;6.80;99.90;;;;;;5063436;28;20063;-49
2022/02/03 23:34:53;;;;;;;58.78;30.83;;;6.80;99.90;;;;;;5068420;28;20032;-51
2022/02/03 23:37:19;;;;;;;55.95;28.85;;;6.80;99.90;;;;;;5061240;28;20025;-49
2022/02/03 23:39:58;;;;;;;57.78;29.38;;;6.80;99.90;;;;;;5065110;28;20098;-50
2022/02/03 23:46:08;;;;;;;52.50;29.45;;;6.90;99.90;;;;;;5060362;28;20457;-49
2022/02/03 23:50:58;;;;;;;55.50;31.33;;;6.80;99.90;;;;;;5057142;28;20483;-51
